createdAt,value
2023-01-11T00:01:45.375Z,4.69
2023-01-11T00:04:57.609Z,4.71
2023-01-11T00:08:10.264Z,4.67
2023-01-11T00:11:24.389Z,4.69
2023-01-11T00:14:36.589Z,4.67
2023-01-11T00:17:49.042Z,4.70
2023-01-11T00:21:01.387Z,4.69
2023-01-11T00:24:14.485Z,4.70
2023-01-11T00:27:26.740Z,4.73
2023-01-11T00:30:40.033Z,4.69
2023-01-11T00:33:52.515Z,4.65
2023-01-11T00:37:05.769Z,4.66
2023-01-11T00:40:19.641Z,4.64
2023-01-11T00:43:45.400Z,4.68
2023-01-11T00:47:12.236Z,4.70
2023-01-11T00:50:24.970Z,4.70
2023-01-11T00:53:37.206Z,4.68
2023-01-11T00:56:49.452Z,4.71
2023-01-11T01:00:02.148Z,4.70
2023-01-11T01:03:14.903Z,4.70
2023-01-11T01:06:27.533Z,4.71
2023-01-11T01:09:40.087Z,4.74
2023-01-11T01:13:07.176Z,4.73
2023-01-11T01:16:19.684Z,4.72
2023-01-11T01:19:33.082Z,4.72
2023-01-11T01:22:45.648Z,4.75
2023-01-11T01:25:58.020Z,4.74
2023-01-11T01:29:11.840Z,4.76
2023-01-11T01:32:24.201Z,4.74
2023-01-11T01:35:36.548Z,4.73
2023-01-11T01:38:48.881Z,4.75
2023-01-11T01:42:01.281Z,4.73
2023-01-11T01:45:28.860Z,4.77
2023-01-11T01:48:39.353Z,4.76
2023-01-11T01:51:56.077Z,4.77
2023-01-11T01:55:14.447Z,4.79
2023-01-11T01:58:32.984Z,4.79
2023-01-11T02:01:54.838Z,4.78
2023-01-11T02:05:07.725Z,4.79
2023-01-11T02:08:25.773Z,4.77
2023-01-11T02:11:41.318Z,4.69
2023-01-11T02:14:55.278Z,4.79
2023-01-11T02:18:07.623Z,4.79
2023-01-11T02:21:30.198Z,4.77
2023-01-11T02:25:09.722Z,4.77
2023-01-11T02:28:25.720Z,4.80
2023-01-11T02:31:44.229Z,4.78
2023-01-11T02:35:03.298Z,4.78
2023-01-11T02:38:21.790Z,4.77
2023-01-11T02:41:42.495Z,4.78
2023-01-11T02:45:08.359Z,4.79
2023-01-11T02:48:28.620Z,4.78
2023-01-11T02:51:47.504Z,4.79
2023-01-11T02:55:03.922Z,4.78
2023-01-11T02:58:18.609Z,4.75
2023-01-11T03:01:31.168Z,4.72
2023-01-11T03:04:46.356Z,4.69
2023-01-11T03:08:06.255Z,4.66
2023-01-11T03:11:31.444Z,4.67
2023-01-11T03:14:52.747Z,4.66
2023-01-11T03:18:14.946Z,4.66
2023-01-11T03:21:42.678Z,4.63
2023-01-11T03:24:59.955Z,4.65
2023-01-11T03:28:18.823Z,4.66
2023-01-11T03:31:37.284Z,4.58
2023-01-11T03:34:56.336Z,4.58
2023-01-11T03:38:14.061Z,4.62
2023-01-11T03:41:31.695Z,4.61
2023-01-11T03:44:48.995Z,4.62
2023-01-11T03:48:04.009Z,4.65
2023-01-11T03:51:19.756Z,4.65
2023-01-11T03:54:34.971Z,4.66
2023-01-11T03:57:51.650Z,4.65
2023-01-11T04:01:04.963Z,4.69
2023-01-11T04:04:17.046Z,4.71
2023-01-11T04:07:29.363Z,4.72
2023-01-11T04:10:41.704Z,4.73
2023-01-11T04:13:55.746Z,4.72
2023-01-11T04:17:08.813Z,4.70
2023-01-11T04:20:21.510Z,4.70
2023-01-11T04:23:33.771Z,4.69
2023-01-11T04:26:46.219Z,4.76
2023-01-11T04:29:58.609Z,4.72
2023-01-11T04:33:13.156Z,4.73
2023-01-11T04:36:25.627Z,4.71
2023-01-11T04:39:37.808Z,4.68
2023-01-11T04:42:52.279Z,4.71
2023-01-11T04:46:07.700Z,4.71
2023-01-11T04:49:20.599Z,4.67
2023-01-11T04:52:33.120Z,4.68
2023-01-11T04:55:46.713Z,4.67
2023-01-11T04:59:00.139Z,4.69
2023-01-11T05:02:12.864Z,4.70
2023-01-11T05:05:25.185Z,4.70
2023-01-11T05:08:38.421Z,4.68
2023-01-11T05:11:51.241Z,4.67
2023-01-11T05:15:06.116Z,4.69
2023-01-11T05:18:18.430Z,4.67
2023-01-11T05:21:33.645Z,4.69
2023-01-11T05:24:45.908Z,4.69
2023-01-11T05:27:58.219Z,4.70
2023-01-11T05:31:11.185Z,4.71
2023-01-11T05:34:24.412Z,4.73
2023-01-11T05:37:37.270Z,4.69
2023-01-11T05:40:49.437Z,4.68
2023-01-11T05:44:16.649Z,4.69
2023-01-11T05:47:28.950Z,4.68
2023-01-11T05:50:41.515Z,4.62
2023-01-11T05:53:54.018Z,4.59
2023-01-11T05:57:08.653Z,4.62
2023-01-11T06:00:23.630Z,4.59
2023-01-11T06:03:36.186Z,4.53
2023-01-11T06:06:48.437Z,4.54
2023-01-11T06:10:00.722Z,4.52
2023-01-11T06:13:29.823Z,4.50
2023-01-11T06:16:42.333Z,4.48
2023-01-11T06:19:54.631Z,4.48
2023-01-11T06:23:07.117Z,4.49
2023-01-11T06:26:22.440Z,4.49
2023-01-11T06:29:34.817Z,4.50
2023-01-11T06:32:47.015Z,4.50
2023-01-11T06:36:00.129Z,4.48
2023-01-11T06:39:12.873Z,4.50
2023-01-11T06:42:25.256Z,4.53
2023-01-11T06:45:38.387Z,4.56
2023-01-11T06:48:51.514Z,4.55
2023-01-11T06:52:04.188Z,4.58
2023-01-11T06:55:17.811Z,4.62
2023-01-11T06:58:31.586Z,4.66
2023-01-11T07:01:44.251Z,4.64
2023-01-11T07:04:56.736Z,4.65
2023-01-11T07:08:09.965Z,4.67
2023-01-11T07:11:22.542Z,4.74
2023-01-11T07:14:35.127Z,4.77
2023-01-11T07:17:49.478Z,4.80
2023-01-11T07:21:02.415Z,4.81
2023-01-11T07:24:15.287Z,4.78
2023-01-11T07:27:27.752Z,4.76
2023-01-11T07:30:56.894Z,4.83
2023-01-11T07:33:59.640Z,4.87
2023-01-11T07:37:28.672Z,4.92
2023-01-11T07:40:27.755Z,4.93
2023-01-11T07:43:40.064Z,4.91
2023-01-11T07:46:52.603Z,4.98
2023-01-11T07:50:05.225Z,5.01
2023-01-11T07:53:19.037Z,5.00
2023-01-11T07:56:31.441Z,5.03
2023-01-11T07:59:43.605Z,5.08
2023-01-11T08:02:59.343Z,5.14
2023-01-11T08:06:14.564Z,5.06
2023-01-11T08:09:27.218Z,5.02
2023-01-11T08:12:53.796Z,5.08
2023-01-11T08:16:07.052Z,5.07
2023-01-11T08:19:19.357Z,5.08
2023-01-11T08:22:31.550Z,5.14
2023-01-11T08:25:44.198Z,5.18
2023-01-11T08:28:56.907Z,5.19
2023-01-11T08:32:09.376Z,5.23
2023-01-11T08:35:22.163Z,5.27
2023-01-11T08:38:34.422Z,5.26
2023-01-11T08:41:46.692Z,5.36
2023-01-11T08:44:59.132Z,5.45
2023-01-11T08:48:12.907Z,5.44
2023-01-11T08:51:25.281Z,5.52
2023-01-11T08:54:37.553Z,5.60
2023-01-11T08:57:49.828Z,5.65
2023-01-11T09:01:06.951Z,5.64
2023-01-11T09:04:24.656Z,5.65
2023-01-11T09:07:31.719Z,5.61
2023-01-11T09:10:44.395Z,5.56
2023-01-11T09:13:56.566Z,5.61
2023-01-11T09:17:08.879Z,5.63
2023-01-11T09:20:22.199Z,5.70
2023-01-11T09:23:34.566Z,5.71
2023-01-11T09:26:46.918Z,5.87
2023-01-11T09:29:59.419Z,6.22
2023-01-11T09:33:11.934Z,6.40
2023-01-11T09:36:26.236Z,6.57
2023-01-11T09:39:39.220Z,6.66
2023-01-11T09:42:56.423Z,6.71
2023-01-11T09:46:12.762Z,6.76
2023-01-11T09:49:29.688Z,6.60
2023-01-11T09:52:47.454Z,6.30
2023-01-11T09:56:02.971Z,6.04
2023-01-11T09:59:22.425Z,5.99
2023-01-11T10:02:41.832Z,6.38
2023-01-11T10:06:09.138Z,6.68
2023-01-11T10:18:29.328Z,7.00
2023-01-11T10:19:42.282Z,6.90
2023-01-11T10:23:00.219Z,6.91
2023-01-11T10:26:15.029Z,6.93
2023-01-11T10:29:50.465Z,6.95
2023-01-11T10:33:08.418Z,7.06
2023-01-11T10:36:32.583Z,7.29
2023-01-11T10:39:57.607Z,7.37
2023-01-11T10:43:19.300Z,7.38
2023-01-11T10:46:34.546Z,7.40
2023-01-11T10:49:55.986Z,7.48
2023-01-11T10:53:17.174Z,7.44
2023-01-11T10:56:37.242Z,7.35
2023-01-11T11:00:17.627Z,7.37
2023-01-11T11:04:10.759Z,7.43
2023-01-11T11:07:31.133Z,7.35
2023-01-11T11:10:49.790Z,7.35
2023-01-11T11:14:07.428Z,7.38
2023-01-11T11:17:28.007Z,7.41
2023-01-11T11:20:44.216Z,7.18
2023-01-11T11:24:01.767Z,7.20
2023-01-11T11:27:25.723Z,7.42
2023-01-11T11:30:41.271Z,7.50
2023-01-11T11:33:54.149Z,7.77
2023-01-11T11:37:06.914Z,7.77
2023-01-11T11:40:37.019Z,8.12
2023-01-11T11:43:51.244Z,8.20
2023-01-11T11:47:08.981Z,8.60
2023-01-11T11:50:45.056Z,8.75
2023-01-11T11:53:55.776Z,8.60
2023-01-11T11:57:21.796Z,8.91
2023-01-11T12:00:42.676Z,8.95
2023-01-11T12:03:56.609Z,8.94
2023-01-11T12:07:19.454Z,8.93
2023-01-11T12:10:33.563Z,8.82
2023-01-11T12:13:47.072Z,8.66
2023-01-11T12:16:59.272Z,8.95
2023-01-11T12:20:40.996Z,8.82
2023-01-11T12:23:53.541Z,8.91
2023-01-11T12:27:13.035Z,8.79
2023-01-11T12:30:33.179Z,8.72
2023-01-11T12:33:52.281Z,8.77
2023-01-11T12:37:11.441Z,8.91
2023-01-11T12:40:30.596Z,8.66
2023-01-11T12:43:55.827Z,8.65
2023-01-11T12:47:24.351Z,8.52
2023-01-11T12:50:41.419Z,8.50
2023-01-11T12:54:08.936Z,8.57
2023-01-11T12:57:29.027Z,8.56
2023-01-11T13:01:16.498Z,8.55
2023-01-11T13:05:05.015Z,8.45
2023-01-11T13:08:19.833Z,8.34
2023-01-11T13:11:43.641Z,8.23
2023-01-11T13:15:13.549Z,8.15
2023-01-11T13:18:34.750Z,8.12
2023-01-11T13:21:55.728Z,8.00
2023-01-11T13:25:17.406Z,7.93
2023-01-11T13:28:38.045Z,7.89
2023-01-11T13:31:54.386Z,7.82
2023-01-11T13:35:11.739Z,7.77
2023-01-11T13:38:34.789Z,7.73
2023-01-11T13:41:51.987Z,7.61
2023-01-11T13:45:05.367Z,7.59
2023-01-11T13:48:22.966Z,7.59
2023-01-11T13:51:41.966Z,7.50
2023-01-11T13:57:59.504Z,7.41
2023-01-11T14:01:17.116Z,7.39
2023-01-11T14:04:34.577Z,7.33
2023-01-11T14:08:02.179Z,7.31
2023-01-11T14:11:21.020Z,7.18
2023-01-11T14:23:41.132Z,6.95
2023-01-11T14:27:11.592Z,6.85
2023-01-11T14:30:48.870Z,6.81
2023-01-11T14:35:01.493Z,6.75
2023-01-11T14:39:03.216Z,6.68
2023-01-11T14:42:53.989Z,6.60
2023-01-11T14:46:38.568Z,6.53
2023-01-11T14:50:06.595Z,6.39
2023-01-11T14:53:23.580Z,6.27
2023-01-11T14:56:59.162Z,6.10
2023-01-11T15:00:34.338Z,6.02
2023-01-11T15:03:57.617Z,6.06
2023-01-11T15:07:27.770Z,5.94
2023-01-11T15:11:05.476Z,5.73
2023-01-11T15:14:38.185Z,5.57
2023-01-11T15:18:20.480Z,5.43
2023-01-11T15:21:34.087Z,5.28
2023-01-11T15:24:49.557Z,5.19
2023-01-11T15:28:03.592Z,5.06
2023-01-11T15:31:44.164Z,4.96
2023-01-11T15:34:58.333Z,4.93
2023-01-11T15:38:18.101Z,4.81
2023-01-11T15:41:54.439Z,4.76
2023-01-11T15:46:00.151Z,4.77
2023-01-11T15:49:45.534Z,4.77
2023-01-11T15:53:42.699Z,4.75
2023-01-11T15:57:28.826Z,4.50
2023-01-11T16:10:44.549Z,4.51
2023-01-11T16:14:34.388Z,4.30
2023-01-11T16:17:50.650Z,4.20
2023-01-11T16:21:12.838Z,4.09
2023-01-11T16:24:29.677Z,4.00
2023-01-11T16:27:42.895Z,4.02
2023-01-11T16:31:03.808Z,4.01
2023-01-11T16:34:20.971Z,4.09
2023-01-11T16:37:34.113Z,4.00
2023-01-11T16:40:51.869Z,3.97
2023-01-11T16:44:09.150Z,4.07
2023-01-11T16:47:24.327Z,4.10
2023-01-11T16:50:36.999Z,4.06
2023-01-11T16:53:53.915Z,4.12
2023-01-11T16:57:08.111Z,3.95
2023-01-11T17:00:34.943Z,3.69
2023-01-11T17:03:55.464Z,3.44
2023-01-11T17:07:18.487Z,3.32
2023-01-11T17:10:33.502Z,3.17
2023-01-11T17:14:31.788Z,3.25
2023-01-11T17:17:46.705Z,3.34
2023-01-11T17:21:01.706Z,3.25
2023-01-11T17:24:18.393Z,3.04
2023-01-11T17:27:35.742Z,2.96
2023-01-11T17:30:52.471Z,2.98
2023-01-11T17:34:20.531Z,3.00
2023-01-11T17:37:33.108Z,3.04
2023-01-11T17:40:47.064Z,2.99
2023-01-11T17:44:14.089Z,3.00
2023-01-11T17:47:26.776Z,2.98
2023-01-11T17:50:42.901Z,2.98
2023-01-11T17:53:58.093Z,2.92
2023-01-11T17:57:11.395Z,2.86
2023-01-11T18:00:35.359Z,2.74
2023-01-11T18:03:52.773Z,2.62
2023-01-11T18:07:15.853Z,2.44
2023-01-11T18:10:32.749Z,2.35
2023-01-11T18:13:45.108Z,2.37
2023-01-11T18:17:10.075Z,2.44
2023-01-11T18:20:43.890Z,2.43
2023-01-11T18:23:56.790Z,2.40
2023-01-11T18:27:32.478Z,2.30
2023-01-11T18:30:46.780Z,2.21
2023-01-11T18:33:59.395Z,2.15
2023-01-11T18:37:13.840Z,2.18
2023-01-11T18:40:27.270Z,2.23
2023-01-11T18:43:39.630Z,2.20
2023-01-11T18:46:51.941Z,2.21
2023-01-11T18:50:05.271Z,2.31
2023-01-11T18:53:20.321Z,2.30
2023-01-11T18:56:32.976Z,2.36
2023-01-11T18:59:45.397Z,2.36
2023-01-11T19:02:57.946Z,2.22
2023-01-11T19:06:12.096Z,2.16
2023-01-11T19:09:24.447Z,2.05
2023-01-11T19:12:36.750Z,1.98
2023-01-11T19:15:49.102Z,2.00
2023-01-11T19:19:03.008Z,1.92
2023-01-11T19:22:16.412Z,1.96
2023-01-11T19:25:29.066Z,1.68
2023-01-11T19:28:43.385Z,1.80
2023-01-11T19:31:56.498Z,1.73
2023-01-11T19:35:09.060Z,1.64
2023-01-11T19:38:21.575Z,1.70
2023-01-11T19:41:35.972Z,1.70
2023-01-11T19:44:48.387Z,1.63
2023-01-11T19:48:00.667Z,1.64
2023-01-11T19:51:16.177Z,1.63
2023-01-11T19:54:29.406Z,1.60
2023-01-11T19:57:41.907Z,1.63
2023-01-11T20:00:54.253Z,1.64
2023-01-11T20:04:07.403Z,1.60
2023-01-11T20:07:21.290Z,1.51
2023-01-11T20:10:33.897Z,1.45
2023-01-11T20:13:49.407Z,1.36
2023-01-11T20:17:01.827Z,1.44
2023-01-11T20:20:17.337Z,1.44
2023-01-11T20:23:30.338Z,1.46
2023-01-11T20:26:42.745Z,1.48
2023-01-11T20:29:55.219Z,1.48
2023-01-11T20:33:10.112Z,1.48
2023-01-11T20:36:24.492Z,1.48
2023-01-11T20:39:36.859Z,1.41
2023-01-11T20:42:49.217Z,1.44
2023-01-11T20:46:04.589Z,1.45
2023-01-11T20:49:17.838Z,1.44
2023-01-11T20:52:30.412Z,1.37
2023-01-11T20:55:45.578Z,1.37
2023-01-11T20:58:58.222Z,1.38
2023-01-11T21:02:10.708Z,1.34
2023-01-11T21:05:23.497Z,1.40
2023-01-11T21:08:35.888Z,1.31
2023-01-11T21:11:50.934Z,1.38
2023-01-11T21:15:03.685Z,1.35
2023-01-11T21:18:16.270Z,1.24
2023-01-11T21:21:29.083Z,1.31
2023-01-11T21:24:42.017Z,1.31
2023-01-11T21:27:54.453Z,1.28
2023-01-11T21:31:10.775Z,1.32
2023-01-11T21:34:23.179Z,1.25
2023-01-11T21:37:35.428Z,1.32
2023-01-11T21:40:47.814Z,1.29
2023-01-11T21:44:00.235Z,1.27
2023-01-11T21:47:14.791Z,1.27
2023-01-11T21:50:27.131Z,1.34
2023-01-11T21:53:40.393Z,1.42
2023-01-11T21:56:53.267Z,1.46
2023-01-11T22:00:08.887Z,1.54
2023-01-11T22:03:32.063Z,1.67
2023-01-11T22:06:47.382Z,1.75
2023-01-11T22:10:04.822Z,1.75
2023-01-11T22:13:14.601Z,1.80
2023-01-11T22:16:27.021Z,1.87
2023-01-11T22:19:39.426Z,1.98
2023-01-11T22:22:52.003Z,2.10
2023-01-11T22:26:08.786Z,2.05
2023-01-11T22:29:21.039Z,2.18
2023-01-11T22:32:35.561Z,2.25
2023-01-11T22:35:47.792Z,2.30
2023-01-11T22:39:00.414Z,2.40
2023-01-11T22:42:13.272Z,2.35
2023-01-11T22:45:25.896Z,2.45
2023-01-11T22:48:38.326Z,2.53
2023-01-11T22:51:51.455Z,2.61
2023-01-11T22:55:03.842Z,2.68
2023-01-11T22:58:16.181Z,2.69
2023-01-11T23:01:31.111Z,2.73
2023-01-11T23:04:43.501Z,2.73
2023-01-11T23:07:55.777Z,2.76
2023-01-11T23:11:08.438Z,2.81
2023-01-11T23:14:23.709Z,2.83
2023-01-11T23:17:35.923Z,2.78
2023-01-11T23:20:48.295Z,2.82
2023-01-11T23:24:00.930Z,2.83
2023-01-11T23:27:13.447Z,2.83
2023-01-11T23:30:26.379Z,2.89
2023-01-11T23:33:38.595Z,2.89
2023-01-11T23:36:51.183Z,2.96
2023-01-11T23:40:03.535Z,2.99
2023-01-11T23:43:15.707Z,3.05
2023-01-11T23:46:42.257Z,3.00
2023-01-11T23:49:57.721Z,3.00
2023-01-11T23:53:10.025Z,3.04
2023-01-11T23:56:23.696Z,3.05
2023-01-11T23:59:36.159Z,3.05
